B11 EFJY-EFKU

Flight info

Callsign B11
Flight time 0h 33m
Altitude 15000
Route RERGA NISPO VFR TC
Aircraft HAWK/M-SDGIRY/C

Departure

Time 2026-05-05 06:04
Airport Jyväskylä Airport (EFJY)

Arrival

Time 2026-05-05 06:38
Airport Kuopio Airport (EFKU)
Time Latitude Longitude Altitude Speed Heading
2026-05-05 05:40 62.40367 25.65580 466 ft 0 kts 86°
2026-05-05 05:59 62.40356 25.65624 465 ft 7 kts 157°
2026-05-05 05:59 62.40289 25.65650 464 ft 14 kts 171°
2026-05-05 05:59 62.40207 25.65768 461 ft 18 kts 60°
2026-05-05 05:59 62.40283 25.65911 461 ft 8 kts 66°
2026-05-05 06:00 62.40303 25.65971 463 ft 5 kts 45°
2026-05-05 06:00 62.40353 25.66077 469 ft 16 kts 44°
2026-05-05 06:00 62.40398 25.66219 476 ft 7 kts 100°
2026-05-05 06:00 62.40368 25.66312 475 ft 10 kts 135°
2026-05-05 06:01 62.40296 25.66473 476 ft 20 kts 133°
2026-05-05 06:01 62.40180 25.66733 476 ft 25 kts 134°
2026-05-05 06:01 62.40064 25.66993 474 ft 23 kts 135°
2026-05-05 06:01 62.39957 25.67230 472 ft 21 kts 135°
2026-05-05 06:02 62.39862 25.67457 470 ft 19 kts 134°
2026-05-05 06:02 62.39772 25.67650 467 ft 18 kts 136°
2026-05-05 06:02 62.39691 25.67836 464 ft 17 kts 134°
2026-05-05 06:02 62.39604 25.68018 459 ft 18 kts 133°
2026-05-05 06:03 62.39536 25.68234 456 ft 16 kts 118°
2026-05-05 06:03 62.39483 25.68450 459 ft 22 kts 117°
2026-05-05 06:03 62.39414 25.68735 465 ft 14 kts 115°
2026-05-05 06:03 62.39430 25.68891 465 ft 10 kts 39°
2026-05-05 06:04 62.39517 25.68789 466 ft 40 kts 313°
2026-05-05 06:04 62.39968 25.67774 482 ft 145 kts 313°
2026-05-05 06:04 62.40844 25.65852 1196 ft 215 kts 313°
2026-05-05 06:04 62.42127 25.63659 2870 ft 242 kts 342°
2026-05-05 06:05 62.43845 25.64190 5162 ft 274 kts 26°
2026-05-05 06:05 62.45139 25.67281 6989 ft 290 kts 70°
2026-05-05 06:05 62.45349 25.71592 9155 ft 291 kts 92°
2026-05-05 06:05 62.45345 25.76176 10623 ft 318 kts 91°
2026-05-05 06:06 62.45437 25.81122 12056 ft 340 kts 90°
2026-05-05 06:06 62.45598 25.86424 13263 ft 372 kts 89°
2026-05-05 06:06 62.45776 25.92280 14059 ft 408 kts 91°
2026-05-05 06:06 62.45823 25.98608 14682 ft 448 kts 93°
2026-05-05 06:07 62.45853 26.05597 14833 ft 479 kts 93°
2026-05-05 06:07 62.45863 26.12911 14884 ft 487 kts 93°
2026-05-05 06:07 62.45868 26.20189 14860 ft 482 kts 93°
2026-05-05 06:07 62.45873 26.27369 14789 ft 478 kts 93°
2026-05-05 06:08 62.45879 26.34507 14812 ft 473 kts 93°
2026-05-05 06:08 62.45901 26.41617 14704 ft 474 kts 90°
2026-05-05 06:08 62.46809 26.48395 14907 ft 470 kts 60°
2026-05-05 06:08 62.48764 26.53997 14916 ft 467 kts 49°
2026-05-05 06:09 62.50856 26.59378 14792 ft 469 kts 48°
2026-05-05 06:09 62.52981 26.64798 14664 ft 471 kts 48°
2026-05-05 06:09 62.55074 26.70147 14557 ft 472 kts 47°
2026-05-05 06:09 62.57189 26.75669 14212 ft 479 kts 49°
2026-05-05 06:10 62.59299 26.81335 13886 ft 483 kts 50°
2026-05-05 06:10 62.61339 26.86966 14412 ft 461 kts 50°
2026-05-05 06:10 62.63279 26.92419 14676 ft 456 kts 50°
2026-05-05 06:10 62.65273 26.97850 14744 ft 454 kts 47°
2026-05-05 06:11 62.67406 27.02918 14829 ft 454 kts 44°
2026-05-05 06:11 62.69565 27.07848 14845 ft 457 kts 44°
2026-05-05 06:11 62.71683 27.13064 14320 ft 466 kts 54°
2026-05-05 06:11 62.73103 27.19519 12261 ft 482 kts 71°
2026-05-05 06:12 62.74144 27.26368 11409 ft 464 kts 73°
2026-05-05 06:12 62.75136 27.32883 10945 ft 441 kts 72°
2026-05-05 06:12 62.76107 27.39142 10144 ft 432 kts 72°
2026-05-05 06:12 62.77085 27.45362 8866 ft 435 kts 72°
2026-05-05 06:13 62.78064 27.51530 7618 ft 432 kts 72°
2026-05-05 06:13 62.78864 27.57752 6749 ft 418 kts 77°
2026-05-05 06:13 62.79600 27.63772 6134 ft 401 kts 77°
2026-05-05 06:13 62.80329 27.69558 5437 ft 389 kts 76°
2026-05-05 06:14 62.81074 27.75152 4885 ft 374 kts 72°
2026-05-05 06:14 62.81930 27.80442 4317 ft 363 kts 71°
2026-05-05 06:14 62.82774 27.85614 3491 ft 360 kts 70°
2026-05-05 06:14 62.83680 27.90518 3493 ft 335 kts 56°
2026-05-05 06:15 62.85471 27.93225 3341 ft 314 kts
2026-05-05 06:15 62.87483 27.92093 2938 ft 301 kts 332°
2026-05-05 06:15 62.89311 27.90196 2561 ft 276 kts 336°
2026-05-05 06:15 62.91020 27.88767 2187 ft 248 kts 335°
2026-05-05 06:16 62.92524 27.87388 1862 ft 218 kts 333°
2026-05-05 06:16 62.93802 27.86159 1553 ft 191 kts 334°
2026-05-05 06:16 62.94970 27.85086 1315 ft 172 kts 333°
2026-05-05 06:16 62.96020 27.84172 1085 ft 150 kts 333°
2026-05-05 06:17 62.96904 27.83338 881 ft 129 kts 328°
2026-05-05 06:17 62.97688 27.82513 704 ft 122 kts 336°
2026-05-05 06:17 62.98470 27.81858 553 ft 120 kts 331°
2026-05-05 06:17 62.99232 27.81141 423 ft 125 kts 335°
2026-05-05 06:18 63.00045 27.80391 311 ft 123 kts 336°
2026-05-05 06:18 63.01022 27.79541 659 ft 179 kts 336°
2026-05-05 06:18 63.02391 27.78279 1623 ft 250 kts 333°
2026-05-05 06:18 63.04009 27.79120 1728 ft 267 kts 60°
2026-05-05 06:19 63.04375 27.82843 1789 ft 245 kts 116°
2026-05-05 06:19 63.03065 27.84709 2055 ft 225 kts 162°
2026-05-05 06:19 63.01607 27.86056 2184 ft 243 kts 161°
2026-05-05 06:19 62.99972 27.87514 2275 ft 254 kts 161°
2026-05-05 06:20 62.98341 27.88926 2312 ft 245 kts 162°
2026-05-05 06:20 62.96859 27.88765 2004 ft 203 kts 218°
2026-05-05 06:20 62.96112 27.86422 1503 ft 180 kts 250°
2026-05-05 06:20 62.95891 27.83879 1075 ft 160 kts 287°
2026-05-05 06:21 62.96814 27.82879 751 ft 177 kts 354°
2026-05-05 06:21 62.98031 27.82291 726 ft 173 kts 334°
2026-05-05 06:21 62.99071 27.81285 465 ft 157 kts 333°
2026-05-05 06:21 63.00059 27.80394 466 ft 161 kts 334°
2026-05-05 06:22 63.01310 27.79228 1095 ft 235 kts 333°
2026-05-05 06:22 63.03038 27.77710 1688 ft 291 kts 348°
2026-05-05 06:22 63.04810 27.79387 1638 ft 298 kts 54°
2026-05-05 06:22 63.05448 27.83600 1784 ft 281 kts 91°
2026-05-05 06:23 63.04254 27.86196 1801 ft 253 kts 166°
2026-05-05 06:23 63.02580 27.87495 1811 ft 254 kts 163°
2026-05-05 06:23 63.00912 27.88750 1710 ft 251 kts 164°
2026-05-05 06:23 62.99265 27.89940 1665 ft 248 kts 165°
2026-05-05 06:24 62.97680 27.90248 1568 ft 211 kts 206°
2026-05-05 06:24 62.96819 27.88158 1290 ft 173 kts 244°
2026-05-05 06:24 62.96421 27.85876 982 ft 149 kts 269°
2026-05-05 06:24 62.96813 27.83949 741 ft 140 kts 302°
2026-05-05 06:25 62.97539 27.82675 748 ft 145 kts 335°
2026-05-05 06:25 62.98496 27.81841 576 ft 142 kts 333°
2026-05-05 06:25 62.99319 27.81081 398 ft 118 kts 328°
2026-05-05 06:25 63.00108 27.80337 510 ft 139 kts 334°
2026-05-05 06:26 63.01215 27.79322 1197 ft 210 kts 334°
2026-05-05 06:26 63.02837 27.78052 1737 ft 280 kts 356°
2026-05-05 06:26 63.04346 27.80282 1688 ft 268 kts 67°
2026-05-05 06:26 63.04609 27.84025 1735 ft 244 kts 117°
2026-05-05 06:27 63.03258 27.85874 1834 ft 239 kts 164°
2026-05-05 06:27 62.99898 27.88622 2090 ft 266 kts 163°
2026-05-05 06:27 62.98193 27.89978 2070 ft 244 kts 166°
2026-05-05 06:28 62.96773 27.89309 1787 ft 194 kts 225°
2026-05-05 06:28 62.96167 27.86960 1386 ft 169 kts 246°
2026-05-05 06:28 62.95825 27.84680 1073 ft 145 kts 271°
2026-05-05 06:28 62.96382 27.83240 751 ft 138 kts 354°
2026-05-05 06:29 62.97347 27.82857 753 ft 157 kts 335°
2026-05-05 06:29 62.98378 27.81960 599 ft 143 kts 333°
2026-05-05 06:29 62.99200 27.81166 448 ft 124 kts 333°
2026-05-05 06:29 62.99972 27.80458 314 ft 115 kts 338°
2026-05-05 06:30 63.00903 27.79683 660 ft 171 kts 336°
2026-05-05 06:30 63.02273 27.78554 1522 ft 249 kts 335°
2026-05-05 06:30 63.04072 27.78091 1801 ft 278 kts 29°
2026-05-05 06:30 63.04890 27.81643 1932 ft 257 kts 78°
2026-05-05 06:31 63.04225 27.84805 2036 ft 236 kts 158°
2026-05-05 06:31 63.02695 27.86315 2098 ft 248 kts 157°
2026-05-05 06:31 63.01122 27.87978 2011 ft 252 kts 158°
2026-05-05 06:31 62.99528 27.89600 1965 ft 252 kts 158°
2026-05-05 06:32 62.97916 27.90577 1907 ft 235 kts 194°
2026-05-05 06:32 62.96671 27.88659 1721 ft 217 kts 229°
2026-05-05 06:32 62.96123 27.85844 1465 ft 190 kts 273°
2026-05-05 06:32 62.96780 27.83580 1015 ft 173 kts 315°
2026-05-05 06:33 62.97705 27.82571 781 ft 139 kts 334°
2026-05-05 06:33 62.98576 27.81785 570 ft 128 kts 330°
2026-05-05 06:33 62.99359 27.81037 402 ft 119 kts 331°
2026-05-05 06:33 63.00103 27.80373 333 ft 122 kts 336°
2026-05-05 06:34 63.01069 27.79489 890 ft 181 kts 333°
2026-05-05 06:34 63.02534 27.78105 1585 ft 268 kts 333°
2026-05-05 06:34 63.04216 27.78932 1628 ft 285 kts 66°
2026-05-05 06:34 63.04451 27.83032 1779 ft 265 kts 119°
2026-05-05 06:35 63.03011 27.85192 1928 ft 258 kts 156°
2026-05-05 06:35 63.01354 27.86950 2078 ft 271 kts 158°
2026-05-05 06:35 62.99670 27.88618 2141 ft 260 kts 159°
2026-05-05 06:35 62.98083 27.90066 2051 ft 232 kts 167°
2026-05-05 06:36 62.96888 27.89071 1669 ft 180 kts 242°
2026-05-05 06:36 62.96305 27.86829 1375 ft 156 kts 242°
2026-05-05 06:36 62.96180 27.84711 1103 ft 131 kts 291°
2026-05-05 06:36 62.96777 27.83377 886 ft 119 kts 334°
2026-05-05 06:37 62.97565 27.82706 780 ft 127 kts 329°
2026-05-05 06:37 62.98389 27.81910 644 ft 129 kts 333°
2026-05-05 06:37 62.99188 27.81200 440 ft 117 kts 330°
2026-05-05 06:37 62.99880 27.80550 317 ft 94 kts 336°
2026-05-05 06:38 63.00389 27.80074 306 ft 69 kts 336°
2026-05-05 06:38 63.00663 27.79818 315 ft 19 kts 337°
2026-05-05 06:38 63.00691 27.79636 317 ft 12 kts 242°
2026-05-05 06:38 63.00663 27.79487 318 ft 9 kts 248°
2026-05-05 06:39 63.00643 27.79380 318 ft 7 kts 246°
2026-05-05 06:39 63.00610 27.79280 317 ft 9 kts 211°
2026-05-05 06:39 63.00552 27.79201 316 ft 10 kts 216°
2026-05-05 06:39 63.00497 27.79109 316 ft 8 kts 217°
2026-05-05 06:40 63.00446 27.79076 316 ft 8 kts 166°
2026-05-05 06:40 63.00415 27.79081 316 ft 1 kts 239°
2026-05-05 06:40 63.00409 27.79038 316 ft 3 kts 250°
2026-05-05 06:40 63.00409 27.79035 316 ft 0 kts 250°